Terminal Aerodrome Forecast
Issued by NWS Charleston, WV

Current Version | Previous Version | Graphics & Text | Print | Product List | Glossary On
Versions: 1 2 3 4 5 6 7 8 9 10 11 12 13 14 15 16 17 18 19 20 21 22 23
000
FTUS41 KRLX 301138
TAFHTS
TAF
KHTS 301138Z 3012/0112 03004KT P6SM BKN150
     FM301400 07004KT P6SM OVC045
     FM301600 08005KT 4SM -SHRA BR OVC035
     FM302100 10005KT 3SM -SHRA BR BKN025
     FM302200 13005KT 6SM HZ BKN025
     FM010100 14006KT 6SM HZ BKN045
     FM010200 16006KT P6SM BKN080=

USA.gov is the U.S. government's official web portal to all federal, state and local government web resources and services.